createdAt,value
2023-02-22T00:02:10.683Z,6.01
2023-02-22T00:04:41.006Z,6.02
2023-02-22T00:07:09.131Z,6.08
2023-02-22T00:09:38.260Z,6.02
2023-02-22T00:12:12.436Z,5.98
2023-02-22T00:14:40.328Z,5.97
2023-02-22T00:17:07.012Z,5.99
2023-02-22T00:19:34.119Z,6.03
2023-02-22T00:22:00.722Z,6.06
2023-02-22T00:24:29.357Z,5.98
2023-02-22T00:26:56.058Z,6.05
2023-02-22T00:29:24.279Z,6.05
2023-02-22T00:31:51.073Z,6.06
2023-02-22T00:34:17.899Z,6.07
2023-02-22T00:36:48.314Z,6.09
2023-02-22T00:39:15.504Z,6.11
2023-02-22T00:41:42.251Z,6.11
2023-02-22T00:44:08.924Z,6.15
2023-02-22T00:46:35.538Z,6.23
2023-02-22T00:49:05.340Z,6.25
2023-02-22T00:51:33.845Z,6.24
2023-02-22T00:54:00.643Z,6.24
2023-02-22T00:56:27.273Z,6.26
2023-02-22T00:58:54.748Z,6.30
2023-02-22T01:01:22.859Z,6.31
2023-02-22T01:03:49.744Z,6.32
2023-02-22T01:06:16.609Z,6.31
2023-02-22T01:08:47.418Z,6.33
2023-02-22T01:11:15.804Z,6.34
2023-02-22T01:13:42.708Z,6.37
2023-02-22T01:16:09.420Z,6.39
2023-02-22T01:18:36.099Z,6.44
2023-02-22T01:21:06.206Z,6.46
2023-02-22T01:23:36.169Z,6.49
2023-02-22T01:26:05.969Z,6.55
2023-02-22T01:28:33.762Z,6.53
2023-02-22T01:31:02.922Z,6.60
2023-02-22T01:33:30.232Z,6.55
2023-02-22T01:35:56.904Z,6.53
2023-02-22T01:38:23.652Z,6.53
2023-02-22T01:40:51.256Z,6.54
2023-02-22T01:43:24.831Z,6.55
2023-02-22T01:45:56.789Z,6.61
2023-02-22T01:48:37.246Z,6.61
2023-02-22T01:51:10.845Z,6.63
2023-02-22T01:54:15.411Z,6.60
2023-02-22T01:56:50.489Z,6.65
2023-02-22T01:59:19.116Z,6.66
2023-02-22T02:01:47.526Z,6.64
2023-02-22T02:04:25.467Z,6.64
2023-02-22T02:06:58.438Z,6.66
2023-02-22T02:09:40.066Z,6.67
2023-02-22T02:12:09.038Z,6.63
2023-02-22T02:14:40.434Z,6.62
2023-02-22T02:17:09.796Z,6.59
2023-02-22T02:19:51.960Z,6.55
2023-02-22T02:22:44.229Z,6.53
2023-02-22T02:25:37.978Z,6.49
2023-02-22T02:28:26.578Z,6.50
2023-02-22T02:31:05.336Z,6.46
2023-02-22T02:33:35.078Z,6.46
2023-02-22T02:36:18.284Z,6.40
2023-02-22T02:38:58.515Z,6.27
2023-02-22T02:41:28.191Z,6.22
2023-02-22T02:44:00.656Z,6.11
2023-02-22T02:46:48.777Z,6.05
2023-02-22T02:49:19.578Z,5.93
2023-02-22T02:51:49.094Z,5.79
2023-02-22T02:54:16.020Z,5.70
2023-02-22T02:56:43.641Z,5.56
2023-02-22T02:59:26.238Z,5.46
2023-02-22T03:02:14.868Z,5.42
2023-02-22T03:05:12.919Z,5.44
2023-02-22T03:07:49.293Z,5.34
2023-02-22T03:10:18.842Z,5.18
2023-02-22T03:13:03.053Z,5.19
2023-02-22T03:15:49.713Z,5.18
2023-02-22T03:18:33.195Z,5.05
2023-02-22T03:21:20.037Z,5.15
2023-02-22T03:24:08.505Z,5.10
2023-02-22T03:26:43.756Z,5.06
2023-02-22T03:29:12.432Z,5.06
2023-02-22T03:31:43.113Z,5.00
2023-02-22T03:34:19.855Z,5.11
2023-02-22T03:36:50.890Z,5.12
2023-02-22T03:39:20.352Z,5.02
2023-02-22T03:41:51.505Z,5.01
2023-02-22T03:44:24.651Z,5.07
2023-02-22T03:46:54.081Z,5.14
2023-02-22T03:49:37.456Z,5.02
2023-02-22T03:52:09.641Z,5.02
2023-02-22T03:54:38.234Z,5.16
2023-02-22T03:57:12.762Z,5.05
2023-02-22T03:59:42.323Z,5.29
2023-02-22T04:02:08.950Z,5.45
2023-02-22T04:04:35.717Z,5.48
2023-02-22T04:07:06.827Z,5.50
2023-02-22T04:09:33.568Z,5.34
2023-02-22T04:12:01.657Z,5.53
2023-02-22T04:14:30.683Z,5.63
2023-02-22T04:16:58.300Z,5.54
2023-02-22T04:19:25.052Z,5.48
2023-02-22T04:21:52.280Z,5.49
2023-02-22T04:24:22.589Z,5.43
2023-02-22T04:26:49.950Z,5.37
2023-02-22T04:29:17.063Z,5.52
2023-02-22T04:31:45.005Z,5.76
2023-02-22T04:34:11.892Z,5.71
2023-02-22T04:36:42.343Z,5.66
2023-02-22T04:39:09.204Z,5.49
2023-02-22T04:41:36.034Z,5.54
2023-02-22T04:44:03.171Z,5.58
2023-02-22T04:46:31.534Z,5.53
2023-02-22T04:48:58.272Z,5.53
2023-02-22T04:51:27.857Z,5.61
2023-02-22T04:53:59.134Z,5.42
2023-02-22T04:56:25.960Z,5.44
2023-02-22T04:58:52.730Z,5.46
2023-02-22T05:01:19.493Z,5.66
2023-02-22T05:03:46.973Z,5.53
2023-02-22T05:06:13.666Z,5.46
2023-02-22T05:08:40.411Z,5.33
2023-02-22T05:11:07.112Z,5.47
2023-02-22T05:13:33.811Z,5.32
2023-02-22T05:16:00.497Z,5.41
2023-02-22T05:18:27.274Z,5.42
2023-02-22T05:20:53.960Z,5.45
2023-02-22T05:23:20.590Z,5.40
2023-02-22T05:25:50.607Z,5.19
2023-02-22T05:28:17.324Z,5.22
2023-02-22T05:30:44.119Z,5.21
2023-02-22T05:33:11.110Z,5.16
2023-02-22T05:35:37.837Z,5.11
2023-02-22T05:38:05.402Z,5.16
2023-02-22T05:40:32.696Z,5.18
2023-02-22T05:43:05.042Z,5.10
2023-02-22T05:45:31.855Z,5.04
2023-02-22T05:47:58.769Z,5.16
2023-02-22T05:50:35.336Z,5.10
2023-02-22T05:53:02.654Z,5.09
2023-02-22T05:55:29.387Z,5.14
2023-02-22T05:57:56.111Z,5.11
2023-02-22T06:00:28.516Z,5.20
2023-02-22T06:03:06.186Z,5.11
2023-02-22T06:05:35.043Z,5.21
2023-02-22T06:08:02.350Z,5.10
2023-02-22T06:10:30.611Z,5.01
2023-02-22T06:12:57.765Z,5.10
2023-02-22T06:15:27.713Z,5.10
2023-02-22T06:17:55.814Z,5.04
2023-02-22T06:20:24.264Z,4.97
2023-02-22T06:22:52.371Z,4.88
2023-02-22T06:25:24.021Z,4.90
2023-02-22T06:27:50.698Z,5.11
2023-02-22T06:30:19.676Z,5.18
2023-02-22T06:32:46.449Z,5.36
2023-02-22T06:35:16.809Z,5.34
2023-02-22T06:37:43.481Z,5.37
2023-02-22T06:40:11.279Z,5.15
2023-02-22T06:42:38.977Z,5.21
2023-02-22T06:45:08.301Z,5.36
2023-02-22T06:47:39.473Z,5.36
2023-02-22T06:50:06.423Z,5.52
2023-02-22T06:52:39.201Z,5.39
2023-02-22T06:55:06.122Z,5.44
2023-02-22T06:57:32.775Z,5.47
2023-02-22T06:59:59.350Z,5.53
2023-02-22T07:02:26.080Z,5.62
2023-02-22T07:04:52.705Z,5.62
2023-02-22T07:07:23.698Z,5.65
2023-02-22T07:09:50.309Z,5.64
2023-02-22T07:12:17.129Z,5.86
2023-02-22T07:14:43.808Z,5.88
2023-02-22T07:17:15.647Z,5.89
2023-02-22T07:19:42.312Z,5.97
2023-02-22T07:22:11.408Z,5.98
2023-02-22T07:24:44.003Z,5.98
2023-02-22T07:27:10.649Z,6.04
2023-02-22T07:29:38.343Z,6.14
2023-02-22T07:32:07.347Z,6.23
2023-02-22T07:34:34.120Z,6.26
2023-02-22T07:37:03.003Z,6.29
2023-02-22T07:39:29.883Z,6.35
2023-02-22T07:41:56.665Z,6.47
2023-02-22T07:44:24.031Z,6.57
2023-02-22T07:46:50.793Z,6.56
2023-02-22T07:49:17.632Z,6.56
2023-02-22T07:51:51.511Z,6.65
2023-02-22T07:54:18.269Z,6.69
2023-02-22T07:56:46.535Z,6.71
2023-02-22T07:59:13.390Z,6.68
2023-02-22T08:01:40.241Z,6.64
2023-02-22T08:04:07.284Z,6.65
2023-02-22T08:06:34.117Z,6.72
2023-02-22T08:09:00.795Z,6.75
2023-02-22T08:11:27.496Z,6.71
2023-02-22T08:13:54.108Z,6.76
2023-02-22T08:16:20.785Z,6.78
2023-02-22T08:18:49.053Z,6.87
2023-02-22T08:21:16.738Z,6.89
2023-02-22T08:23:43.559Z,6.97
2023-02-22T08:26:15.608Z,7.08
2023-02-22T08:28:43.169Z,7.10
2023-02-22T08:31:09.857Z,7.18
2023-02-22T08:33:36.581Z,7.26
2023-02-22T08:36:03.509Z,7.34
2023-02-22T08:38:31.184Z,7.36
2023-02-22T08:40:58.111Z,7.54
2023-02-22T08:43:24.939Z,7.73
2023-02-22T08:45:52.263Z,7.69
2023-02-22T08:48:19.888Z,7.84
2023-02-22T08:50:46.758Z,7.87
2023-02-22T08:53:14.367Z,7.97
2023-02-22T08:55:41.801Z,8.10
2023-02-22T08:58:12.074Z,8.17
2023-02-22T09:00:40.093Z,8.19
2023-02-22T09:03:09.957Z,8.27
2023-02-22T09:05:36.699Z,8.25
2023-02-22T09:08:06.084Z,8.26
2023-02-22T09:10:33.992Z,8.30
2023-02-22T09:13:01.280Z,8.38
2023-02-22T09:15:30.123Z,8.38
2023-02-22T09:17:56.874Z,8.51
2023-02-22T09:20:24.448Z,8.56
2023-02-22T09:22:51.041Z,8.61
2023-02-22T09:25:20.633Z,8.76
2023-02-22T09:27:48.901Z,8.82
2023-02-22T09:30:23.997Z,8.89
2023-02-22T09:32:56.199Z,8.80
2023-02-22T09:35:27.566Z,8.96
2023-02-22T09:38:06.157Z,9.06
2023-02-22T09:40:41.139Z,9.12
2023-02-22T09:43:19.434Z,9.34
2023-02-22T09:46:02.597Z,9.35
2023-02-22T09:48:31.913Z,9.53
2023-02-22T09:50:59.793Z,9.61
2023-02-22T09:53:41.715Z,9.71
2023-02-22T09:56:14.941Z,9.75
2023-02-22T09:58:47.587Z,9.95
2023-02-22T10:01:22.916Z,9.99
2023-02-22T10:04:10.563Z,10.19
2023-02-22T10:06:37.925Z,10.15
2023-02-22T10:09:08.050Z,10.24
2023-02-22T10:11:57.102Z,10.16
2023-02-22T10:14:33.444Z,10.14
2023-02-22T10:17:12.796Z,10.19
2023-02-22T10:20:07.399Z,10.28
2023-02-22T10:23:00.187Z,10.23
2023-02-22T10:25:34.995Z,10.23
2023-02-22T10:28:10.680Z,10.34
2023-02-22T10:31:00.733Z,10.51
2023-02-22T10:33:31.776Z,10.40
2023-02-22T10:35:58.807Z,10.52
2023-02-22T10:38:44.206Z,10.48
2023-02-22T10:41:10.842Z,10.53
2023-02-22T10:43:37.973Z,10.71
2023-02-22T10:46:07.092Z,10.83
2023-02-22T10:48:37.696Z,11.02
2023-02-22T10:51:06.670Z,11.10
2023-02-22T10:53:36.320Z,11.10
2023-02-22T10:56:18.929Z,11.05
2023-02-22T10:58:49.745Z,11.18
2023-02-22T11:01:27.770Z,11.14
2023-02-22T11:04:15.106Z,11.20
2023-02-22T11:06:45.162Z,11.11
2023-02-22T11:09:18.133Z,11.17
2023-02-22T11:11:47.443Z,11.29
2023-02-22T11:14:28.089Z,11.23
2023-02-22T11:16:56.808Z,11.03
2023-02-22T11:19:31.619Z,11.03
2023-02-22T11:22:10.274Z,11.02
2023-02-22T11:24:59.625Z,11.07
2023-02-22T11:27:38.621Z,10.91
2023-02-22T11:30:10.845Z,10.91
2023-02-22T11:32:46.787Z,10.91
2023-02-22T11:35:26.729Z,10.83
2023-02-22T11:37:53.555Z,10.79
2023-02-22T11:40:22.648Z,10.96
2023-02-22T11:43:11.062Z,10.86
2023-02-22T11:45:44.234Z,10.94
2023-02-22T11:48:21.233Z,11.16
2023-02-22T11:51:14.099Z,11.19
2023-02-22T11:54:19.468Z,11.44
2023-02-22T11:56:49.308Z,11.47
2023-02-22T11:59:40.845Z,11.36
2023-02-22T12:02:51.958Z,11.46
2023-02-22T12:05:37.340Z,11.63
2023-02-22T12:08:20.256Z,11.85
2023-02-22T12:11:06.425Z,11.85
2023-02-22T12:13:58.834Z,11.83
2023-02-22T12:16:59.377Z,11.93
2023-02-22T12:19:45.403Z,11.72
2023-02-22T12:22:22.734Z,11.81
2023-02-22T12:25:08.987Z,11.92
2023-02-22T12:27:44.436Z,11.97
2023-02-22T12:30:16.372Z,12.04
2023-02-22T12:32:48.006Z,11.87
2023-02-22T12:35:26.810Z,11.98
2023-02-22T12:38:12.391Z,11.98
2023-02-22T12:40:48.338Z,12.00
2023-02-22T12:43:20.745Z,12.19
2023-02-22T12:46:10.963Z,11.92
2023-02-22T12:48:54.284Z,12.05
2023-02-22T12:51:29.410Z,12.25
2023-02-22T12:54:02.363Z,12.19
2023-02-22T12:56:35.203Z,12.15
2023-02-22T12:59:38.121Z,12.27
2023-02-22T13:02:10.797Z,12.21
2023-02-22T13:04:37.642Z,12.12
2023-02-22T13:07:13.088Z,12.05
2023-02-22T13:09:57.144Z,12.23
2023-02-22T13:12:45.213Z,12.30
2023-02-22T13:15:23.903Z,12.25
2023-02-22T13:18:01.635Z,12.30
2023-02-22T13:20:36.412Z,12.50
2023-02-22T13:23:12.734Z,12.48
2023-02-22T13:25:55.248Z,12.36
2023-02-22T13:28:49.141Z,12.41
2023-02-22T13:31:58.004Z,12.34
2023-02-22T13:34:43.488Z,12.30
2023-02-22T13:37:35.860Z,12.35
2023-02-22T13:40:30.771Z,12.27
2023-02-22T13:43:17.454Z,12.24
2023-02-22T13:46:13.475Z,12.20
2023-02-22T13:48:55.356Z,12.07
2023-02-22T13:51:36.773Z,12.09
2023-02-22T13:54:12.508Z,12.01
2023-02-22T13:56:42.993Z,12.01
2023-02-22T13:59:33.833Z,12.13
2023-02-22T14:02:04.452Z,12.03
2023-02-22T14:04:31.048Z,12.03
2023-02-22T14:07:00.722Z,11.96
2023-02-22T14:09:53.132Z,11.92
2023-02-22T14:12:34.938Z,11.93
2023-02-22T14:15:28.759Z,11.96
2023-02-22T14:18:02.184Z,11.95
2023-02-22T14:20:36.951Z,11.92
2023-02-22T14:23:40.352Z,11.91
2023-02-22T14:26:27.545Z,12.00
2023-02-22T14:29:03.243Z,11.94
2023-02-22T14:31:37.611Z,11.90
2023-02-22T14:34:04.628Z,11.85
2023-02-22T14:36:54.857Z,11.84
2023-02-22T14:39:43.507Z,11.86
2023-02-22T14:42:17.652Z,11.93
2023-02-22T14:44:53.602Z,11.85
2023-02-22T14:48:01.261Z,11.92
2023-02-22T14:50:40.388Z,11.85
2023-02-22T14:53:13.373Z,11.78
2023-02-22T14:55:46.850Z,11.72
2023-02-22T14:58:25.673Z,11.70
2023-02-22T15:00:53.863Z,11.76
2023-02-22T15:03:37.423Z,11.74
2023-02-22T15:06:14.912Z,11.67
2023-02-22T15:08:43.512Z,11.65
2023-02-22T15:11:23.632Z,11.58
2023-02-22T15:13:52.905Z,11.49
2023-02-22T15:16:23.910Z,11.43
2023-02-22T15:18:54.177Z,11.35
2023-02-22T15:21:23.938Z,11.34
2023-02-22T15:23:58.489Z,11.27
2023-02-22T15:26:51.949Z,11.51
2023-02-22T15:29:31.721Z,11.28
2023-02-22T15:32:00.519Z,11.24
2023-02-22T15:34:31.898Z,11.16
2023-02-22T15:37:19.968Z,11.16
2023-02-22T15:39:46.803Z,11.07
2023-02-22T15:42:20.775Z,11.04
2023-02-22T15:44:49.262Z,10.95
2023-02-22T15:47:27.728Z,10.95
2023-02-22T15:50:15.354Z,11.03
2023-02-22T15:53:10.456Z,10.86
2023-02-22T15:55:37.907Z,10.86
2023-02-22T15:58:11.367Z,10.79
2023-02-22T16:00:41.447Z,10.64
2023-02-22T16:03:10.943Z,10.53
2023-02-22T16:05:57.859Z,10.56
2023-02-22T16:08:29.419Z,10.42
2023-02-22T16:11:13.037Z,10.26
2023-02-22T16:13:41.603Z,10.13
2023-02-22T16:16:29.749Z,10.03
2023-02-22T16:19:22.296Z,9.82
2023-02-22T16:22:03.525Z,9.73
2023-02-22T16:24:35.566Z,9.54
2023-02-22T16:27:04.566Z,9.39
2023-02-22T16:29:31.445Z,9.35
2023-02-22T16:31:58.251Z,9.37
2023-02-22T16:34:24.962Z,9.27
2023-02-22T16:36:53.841Z,9.17
2023-02-22T16:39:24.964Z,8.99
2023-02-22T16:41:52.080Z,8.97
2023-02-22T16:44:20.919Z,8.87
2023-02-22T16:46:47.635Z,8.66
2023-02-22T16:49:14.890Z,8.68
2023-02-22T16:51:48.041Z,8.70
2023-02-22T16:54:21.555Z,8.63
2023-02-22T16:56:48.199Z,8.57
2023-02-22T16:59:15.490Z,8.57
2023-02-22T17:01:42.581Z,8.46
2023-02-22T17:04:29.121Z,8.45
2023-02-22T17:06:59.195Z,8.49
2023-02-22T17:09:26.422Z,8.54
2023-02-22T17:11:53.264Z,8.54
2023-02-22T17:14:23.237Z,8.53
2023-02-22T17:16:50.957Z,8.46
2023-02-22T17:19:25.872Z,8.40
2023-02-22T17:21:59.651Z,8.49
2023-02-22T17:24:29.415Z,8.35
2023-02-22T17:26:57.493Z,8.31
2023-02-22T17:32:27.385Z,8.44
2023-02-22T17:34:54.121Z,8.42
2023-02-22T17:37:20.819Z,8.40
2023-02-22T17:39:49.744Z,8.45
2023-02-22T17:42:16.448Z,8.46
2023-02-22T17:44:50.219Z,8.42
2023-02-22T17:47:20.065Z,8.31
2023-02-22T17:49:46.839Z,8.31
2023-02-22T17:52:21.098Z,8.33
2023-02-22T17:54:51.384Z,8.41
2023-02-22T17:57:18.551Z,8.29
2023-02-22T17:59:48.475Z,8.30
2023-02-22T18:02:24.215Z,8.22
2023-02-22T18:04:51.029Z,8.21
2023-02-22T18:07:19.988Z,8.25
2023-02-22T18:10:16.266Z,8.24
2023-02-22T18:12:43.323Z,8.27
2023-02-22T18:15:17.312Z,8.38
2023-02-22T18:17:46.188Z,8.35
2023-02-22T18:20:14.087Z,8.28
2023-02-22T18:22:43.238Z,8.25
2023-02-22T18:25:11.292Z,8.23
2023-02-22T18:27:38.221Z,8.21
2023-02-22T18:30:06.899Z,8.36
2023-02-22T18:32:33.719Z,8.38
2023-02-22T18:35:00.507Z,8.40
2023-02-22T18:37:30.546Z,8.35
2023-02-22T18:39:57.992Z,8.31
2023-02-22T18:42:26.263Z,8.29
2023-02-22T18:44:54.491Z,8.25
2023-02-22T18:47:23.002Z,8.20
2023-02-22T18:49:49.777Z,8.21
2023-02-22T18:52:16.449Z,8.17
2023-02-22T18:54:47.272Z,8.19
2023-02-22T18:57:17.026Z,8.11
2023-02-22T18:59:46.050Z,8.12
2023-02-22T19:02:15.028Z,8.08
2023-02-22T19:04:46.827Z,8.07
2023-02-22T19:07:18.324Z,8.02
2023-02-22T19:09:58.563Z,7.96
2023-02-22T19:12:27.107Z,7.95
2023-02-22T19:14:53.834Z,8.03
2023-02-22T19:17:21.596Z,8.04
2023-02-22T19:19:57.163Z,8.03
2023-02-22T19:22:26.300Z,8.02
2023-02-22T19:24:58.715Z,8.02
2023-02-22T19:27:27.529Z,8.20
2023-02-22T19:29:54.248Z,8.09
2023-02-22T19:32:21.901Z,8.01
2023-02-22T19:34:52.889Z,7.91
2023-02-22T19:37:22.682Z,7.92
2023-02-22T19:39:49.378Z,7.86
2023-02-22T19:42:16.126Z,7.85
2023-02-22T19:44:51.595Z,7.84
2023-02-22T19:47:18.306Z,7.81
2023-02-22T19:49:49.613Z,7.86
2023-02-22T19:52:19.730Z,7.88
2023-02-22T19:54:46.493Z,7.98
2023-02-22T19:57:16.296Z,8.11
2023-02-22T19:59:44.503Z,8.03
2023-02-22T20:02:16.084Z,7.98
2023-02-22T20:04:50.158Z,8.08
2023-02-22T20:07:23.019Z,7.96
2023-02-22T20:09:49.851Z,7.93
2023-02-22T20:12:16.592Z,7.97
2023-02-22T20:14:46.383Z,7.89
2023-02-22T20:17:15.638Z,7.83
2023-02-22T20:19:45.394Z,7.88
2023-02-22T20:22:14.875Z,7.82
2023-02-22T20:24:59.431Z,7.73
2023-02-22T20:27:26.264Z,7.65
2023-02-22T20:29:56.318Z,7.63
2023-02-22T20:32:24.649Z,7.57
2023-02-22T20:34:51.856Z,7.43
2023-02-22T20:37:19.068Z,7.43
2023-02-22T20:39:54.823Z,7.37
2023-02-22T20:42:21.740Z,7.36
2023-02-22T20:44:53.463Z,7.36
2023-02-22T20:47:45.370Z,7.43
2023-02-22T20:50:13.247Z,7.38
2023-02-22T20:52:56.211Z,7.31
2023-02-22T20:55:25.826Z,7.46
2023-02-22T20:58:01.194Z,7.35
2023-02-22T21:00:27.996Z,7.31
2023-02-22T21:02:55.705Z,7.21
2023-02-22T21:05:28.122Z,7.19
2023-02-22T21:07:58.579Z,7.23
2023-02-22T21:10:25.433Z,7.25
2023-02-22T21:12:52.387Z,7.21
2023-02-22T21:15:19.209Z,7.18
2023-02-22T21:17:49.058Z,7.15
2023-02-22T21:20:17.492Z,7.20
2023-02-22T21:22:45.203Z,7.07
2023-02-22T21:25:19.536Z,7.10
2023-02-22T21:27:47.102Z,7.03
2023-02-22T21:30:15.128Z,7.00
2023-02-22T21:32:42.014Z,6.94
2023-02-22T21:35:08.996Z,6.94
2023-02-22T21:37:38.863Z,6.94
2023-02-22T21:40:12.127Z,6.88
2023-02-22T21:42:38.758Z,7.00
2023-02-22T21:45:08.314Z,6.99
2023-02-22T21:47:35.865Z,6.97
2023-02-22T21:50:02.520Z,6.94
2023-02-22T21:52:29.149Z,6.92
2023-02-22T21:54:55.818Z,6.89
2023-02-22T21:57:26.251Z,6.79
2023-02-22T21:59:53.275Z,6.67
2023-02-22T22:02:22.111Z,6.64
2023-02-22T22:04:57.620Z,6.70
2023-02-22T22:07:24.356Z,6.66
2023-02-22T22:09:56.747Z,6.81
2023-02-22T22:12:39.237Z,6.69
2023-02-22T22:15:08.746Z,6.64
2023-02-22T22:17:35.795Z,6.74
2023-02-22T22:20:05.449Z,6.69
2023-02-22T22:22:32.267Z,6.55
2023-02-22T22:24:59.095Z,6.50
2023-02-22T22:27:33.372Z,6.52
2023-02-22T22:30:01.886Z,6.50
2023-02-22T22:32:29.701Z,6.51
2023-02-22T22:35:01.853Z,6.51
2023-02-22T22:37:29.124Z,6.52
2023-02-22T22:39:56.018Z,6.51
2023-02-22T22:42:25.455Z,6.57
2023-02-22T22:44:59.747Z,6.65
2023-02-22T22:47:26.509Z,6.70
2023-02-22T22:49:58.921Z,6.70
2023-02-22T22:52:31.259Z,6.69
2023-02-22T22:55:00.630Z,6.69
2023-02-22T22:57:35.040Z,6.77
2023-02-22T23:00:21.698Z,6.88
2023-02-22T23:02:48.771Z,6.80
2023-02-22T23:05:17.379Z,6.81
2023-02-22T23:07:48.262Z,6.78
2023-02-22T23:10:15.009Z,6.82
2023-02-22T23:12:41.668Z,6.75
2023-02-22T23:15:08.852Z,6.64
2023-02-22T23:17:42.476Z,6.57
2023-02-22T23:20:13.512Z,6.54
2023-02-22T23:22:40.770Z,6.49
2023-02-22T23:25:08.248Z,6.45
2023-02-22T23:27:38.332Z,6.45
2023-02-22T23:30:06.577Z,6.43
2023-02-22T23:32:35.048Z,6.49
2023-02-22T23:35:06.197Z,6.39
2023-02-22T23:37:35.618Z,6.29
2023-02-22T23:40:02.504Z,6.38
2023-02-22T23:42:29.201Z,6.22
2023-02-22T23:44:57.231Z,6.12
2023-02-22T23:47:31.708Z,6.10
2023-02-22T23:49:59.105Z,6.12
2023-02-22T23:52:30.208Z,6.25
2023-02-22T23:54:58.324Z,6.21
2023-02-22T23:57:26.108Z,6.17
2023-02-22T23:59:52.960Z,6.29
